sensor_id;sensor_type;location;lat;lon;timestamp;P1;durP1;ratioP1;P2;durP2;ratioP2
67528;SDS011;54366;51.980;5.856;2023-03-05T00:00:11;6.82;;;2.28;;
67528;SDS011;54366;51.980;5.856;2023-03-05T00:02:45;6.57;;;2.15;;
67528;SDS011;54366;51.980;5.856;2023-03-05T00:05:18;6.60;;;2.20;;
67528;SDS011;54366;51.980;5.856;2023-03-05T00:07:51;5.22;;;1.95;;
67528;SDS011;54366;51.980;5.856;2023-03-05T00:10:24;5.18;;;2.05;;
67528;SDS011;54366;51.980;5.856;2023-03-05T00:12:57;7.18;;;2.20;;
67528;SDS011;54366;51.980;5.856;2023-03-05T00:15:30;5.68;;;2.13;;
67528;SDS011;54366;51.980;5.856;2023-03-05T00:18:03;5.50;;;1.95;;
67528;SDS011;54366;51.980;5.856;2023-03-05T00:20:36;6.43;;;2.03;;
67528;SDS011;54366;51.980;5.856;2023-03-05T00:23:09;5.72;;;2.15;;
67528;SDS011;54366;51.980;5.856;2023-03-05T00:25:42;7.43;;;2.20;;
67528;SDS011;54366;51.980;5.856;2023-03-05T00:28:17;6.18;;;2.00;;
67528;SDS011;54366;51.980;5.856;2023-03-05T00:30:50;4.20;;;1.80;;
67528;SDS011;54366;51.980;5.856;2023-03-05T00:33:23;7.07;;;1.92;;
67528;SDS011;54366;51.980;5.856;2023-03-05T00:35:57;4.60;;;1.93;;
67528;SDS011;54366;51.980;5.856;2023-03-05T00:38:32;4.15;;;1.60;;
67528;SDS011;54366;51.980;5.856;2023-03-05T00:41:05;4.53;;;1.60;;
67528;SDS011;54366;51.980;5.856;2023-03-05T00:43:39;6.80;;;1.73;;
67528;SDS011;54366;51.980;5.856;2023-03-05T00:46:05;4.28;;;1.58;;
67528;SDS011;54366;51.980;5.856;2023-03-05T00:48:38;4.18;;;1.63;;
67528;SDS011;54366;51.980;5.856;2023-03-05T00:51:11;3.80;;;1.30;;
67528;SDS011;54366;51.980;5.856;2023-03-05T00:53:50;5.40;;;1.67;;
67528;SDS011;54366;51.980;5.856;2023-03-05T00:56:30;6.07;;;1.52;;
67528;SDS011;54366;51.980;5.856;2023-03-05T00:59:03;5.05;;;1.70;;
67528;SDS011;54366;51.980;5.856;2023-03-05T01:01:36;6.82;;;1.83;;
67528;SDS011;54366;51.980;5.856;2023-03-05T01:04:09;3.92;;;1.63;;
67528;SDS011;54366;51.980;5.856;2023-03-05T01:06:42;8.55;;;2.50;;
67528;SDS011;54366;51.980;5.856;2023-03-05T01:09:15;4.22;;;1.42;;
67528;SDS011;54366;51.980;5.856;2023-03-05T01:11:48;4.43;;;1.60;;
67528;SDS011;54366;51.980;5.856;2023-03-05T01:14:21;4.65;;;1.48;;
67528;SDS011;54366;51.980;5.856;2023-03-05T01:16:54;5.18;;;1.80;;
67528;SDS011;54366;51.980;5.856;2023-03-05T01:19:27;5.32;;;1.58;;
67528;SDS011;54366;51.980;5.856;2023-03-05T01:22:00;4.97;;;1.48;;
67528;SDS011;54366;51.980;5.856;2023-03-05T01:24:33;5.40;;;1.25;;
67528;SDS011;54366;51.980;5.856;2023-03-05T01:27:06;5.07;;;1.50;;
67528;SDS011;54366;51.980;5.856;2023-03-05T01:29:39;7.07;;;1.60;;
67528;SDS011;54366;51.980;5.856;2023-03-05T01:32:12;4.70;;;1.60;;
67528;SDS011;54366;51.980;5.856;2023-03-05T01:34:45;4.70;;;1.60;;
67528;SDS011;54366;51.980;5.856;2023-03-05T01:37:12;5.00;;;1.60;;
67528;SDS011;54366;51.980;5.856;2023-03-05T01:39:44;4.57;;;1.60;;
67528;SDS011;54366;51.980;5.856;2023-03-05T01:42:17;5.07;;;1.50;;
67528;SDS011;54366;51.980;5.856;2023-03-05T01:45:09;3.90;;;1.50;;
67528;SDS011;54366;51.980;5.856;2023-03-05T01:47:44;6.93;;;1.77;;
67528;SDS011;54366;51.980;5.856;2023-03-05T01:50:18;5.82;;;1.45;;
67528;SDS011;54366;51.980;5.856;2023-03-05T01:53:01;4.35;;;1.25;;
67528;SDS011;54366;51.980;5.856;2023-03-05T01:55:43;3.55;;;1.20;;
67528;SDS011;54366;51.980;5.856;2023-03-05T01:58:16;5.10;;;1.65;;
67528;SDS011;54366;51.980;5.856;2023-03-05T02:00:44;5.60;;;1.67;;
67528;SDS011;54366;51.980;5.856;2023-03-05T02:03:19;7.47;;;1.75;;
67528;SDS011;54366;51.980;5.856;2023-03-05T02:05:55;5.88;;;1.40;;
67528;SDS011;54366;51.980;5.856;2023-03-05T02:08:28;4.60;;;1.42;;
67528;SDS011;54366;51.980;5.856;2023-03-05T02:11:01;3.13;;;1.20;;
67528;SDS011;54366;51.980;5.856;2023-03-05T02:13:34;4.60;;;1.50;;
67528;SDS011;54366;51.980;5.856;2023-03-05T02:16:09;4.78;;;1.48;;
67528;SDS011;54366;51.980;5.856;2023-03-05T02:18:42;4.65;;;1.42;;
67528;SDS011;54366;51.980;5.856;2023-03-05T02:21:23;4.55;;;1.45;;
67528;SDS011;54366;51.980;5.856;2023-03-05T02:23:59;5.18;;;1.50;;
67528;SDS011;54366;51.980;5.856;2023-03-05T02:26:25;3.67;;;1.38;;
67528;SDS011;54366;51.980;5.856;2023-03-05T02:28:59;6.57;;;1.50;;
67528;SDS011;54366;51.980;5.856;2023-03-05T02:31:34;4.30;;;1.38;;
67528;SDS011;54366;51.980;5.856;2023-03-05T02:34:09;4.40;;;1.55;;
67528;SDS011;54366;51.980;5.856;2023-03-05T02:36:36;5.88;;;1.67;;
67528;SDS011;54366;51.980;5.856;2023-03-05T02:39:08;3.53;;;1.23;;
67528;SDS011;54366;51.980;5.856;2023-03-05T02:41:41;5.80;;;1.55;;
67528;SDS011;54366;51.980;5.856;2023-03-05T02:44:14;5.88;;;1.38;;
67528;SDS011;54366;51.980;5.856;2023-03-05T02:46:40;4.72;;;1.45;;
67528;SDS011;54366;51.980;5.856;2023-03-05T02:49:13;5.95;;;1.42;;
67528;SDS011;54366;51.980;5.856;2023-03-05T02:51:46;4.53;;;1.52;;
67528;SDS011;54366;51.980;5.856;2023-03-05T02:54:25;3.45;;;1.10;;
67528;SDS011;54366;51.980;5.856;2023-03-05T02:56:58;5.68;;;1.55;;
67528;SDS011;54366;51.980;5.856;2023-03-05T02:59:31;6.57;;;1.92;;
67528;SDS011;54366;51.980;5.856;2023-03-05T03:02:04;6.47;;;1.60;;
67528;SDS011;54366;51.980;5.856;2023-03-05T03:04:37;6.43;;;1.50;;
67528;SDS011;54366;51.980;5.856;2023-03-05T03:07:13;5.70;;;1.90;;
67528;SDS011;54366;51.980;5.856;2023-03-05T03:09:47;3.58;;;2.08;;
67528;SDS011;54366;51.980;5.856;2023-03-05T03:12:20;6.35;;;2.13;;
67528;SDS011;54366;51.980;5.856;2023-03-05T03:14:54;5.65;;;1.98;;
67528;SDS011;54366;51.980;5.856;2023-03-05T03:17:27;4.47;;;1.70;;
67528;SDS011;54366;51.980;5.856;2023-03-05T03:20:00;5.75;;;1.83;;
67528;SDS011;54366;51.980;5.856;2023-03-05T03:22:35;5.55;;;1.52;;
67528;SDS011;54366;51.980;5.856;2023-03-05T03:25:08;4.90;;;1.90;;
67528;SDS011;54366;51.980;5.856;2023-03-05T03:27:42;3.92;;;1.65;;
67528;SDS011;54366;51.980;5.856;2023-03-05T03:30:15;5.65;;;1.85;;
67528;SDS011;54366;51.980;5.856;2023-03-05T03:32:49;6.10;;;2.20;;
67528;SDS011;54366;51.980;5.856;2023-03-05T03:35:23;7.05;;;2.10;;
67528;SDS011;54366;51.980;5.856;2023-03-05T03:37:56;6.10;;;1.95;;
67528;SDS011;54366;51.980;5.856;2023-03-05T03:40:29;3.42;;;1.88;;
67528;SDS011;54366;51.980;5.856;2023-03-05T03:43:02;5.32;;;2.00;;
67528;SDS011;54366;51.980;5.856;2023-03-05T03:45:38;6.70;;;2.20;;
67528;SDS011;54366;51.980;5.856;2023-03-05T03:48:12;7.03;;;2.05;;
67528;SDS011;54366;51.980;5.856;2023-03-05T03:50:45;7.18;;;2.50;;
67528;SDS011;54366;51.980;5.856;2023-03-05T03:53:12;5.25;;;2.10;;
67528;SDS011;54366;51.980;5.856;2023-03-05T03:55:58;4.53;;;1.75;;
67528;SDS011;54366;51.980;5.856;2023-03-05T03:58:30;4.65;;;1.80;;
67528;SDS011;54366;51.980;5.856;2023-03-05T04:01:03;6.35;;;2.17;;
67528;SDS011;54366;51.980;5.856;2023-03-05T04:03:36;6.00;;;2.00;;
67528;SDS011;54366;51.980;5.856;2023-03-05T04:06:09;7.05;;;2.20;;
67528;SDS011;54366;51.980;5.856;2023-03-05T04:08:42;5.65;;;2.00;;
67528;SDS011;54366;51.980;5.856;2023-03-05T04:11:08;4.53;;;2.00;;
67528;SDS011;54366;51.980;5.856;2023-03-05T04:13:41;3.97;;;1.90;;
67528;SDS011;54366;51.980;5.856;2023-03-05T04:16:14;5.80;;;2.58;;
67528;SDS011;54366;51.980;5.856;2023-03-05T04:18:47;4.18;;;1.90;;
67528;SDS011;54366;51.980;5.856;2023-03-05T04:21:20;6.55;;;2.30;;
67528;SDS011;54366;51.980;5.856;2023-03-05T04:23:53;7.82;;;1.98;;
67528;SDS011;54366;51.980;5.856;2023-03-05T04:26:19;7.75;;;2.15;;
67528;SDS011;54366;51.980;5.856;2023-03-05T04:28:52;7.45;;;2.03;;
67528;SDS011;54366;51.980;5.856;2023-03-05T04:31:25;7.47;;;2.28;;
67528;SDS011;54366;51.980;5.856;2023-03-05T04:33:58;3.95;;;1.55;;
67528;SDS011;54366;51.980;5.856;2023-03-05T04:36:31;3.85;;;1.70;;
67528;SDS011;54366;51.980;5.856;2023-03-05T04:38:57;5.18;;;1.80;;
67528;SDS011;54366;51.980;5.856;2023-03-05T04:41:30;5.78;;;2.00;;
67528;SDS011;54366;51.980;5.856;2023-03-05T04:44:03;6.65;;;2.17;;
67528;SDS011;54366;51.980;5.856;2023-03-05T04:46:36;4.50;;;1.52;;
67528;SDS011;54366;51.980;5.856;2023-03-05T04:49:09;3.85;;;1.20;;
67528;SDS011;54366;51.980;5.856;2023-03-05T04:51:42;3.65;;;1.27;;
67528;SDS011;54366;51.980;5.856;2023-03-05T04:54:15;4.82;;;1.20;;
67528;SDS011;54366;51.980;5.856;2023-03-05T04:57:02;5.30;;;1.50;;
67528;SDS011;54366;51.980;5.856;2023-03-05T04:59:35;3.10;;;1.30;;
67528;SDS011;54366;51.980;5.856;2023-03-05T05:02:08;4.45;;;1.38;;
67528;SDS011;54366;51.980;5.856;2023-03-05T05:04:41;4.80;;;1.50;;
67528;SDS011;54366;51.980;5.856;2023-03-05T05:07:16;4.43;;;1.10;;
67528;SDS011;54366;51.980;5.856;2023-03-05T05:09:49;5.43;;;1.40;;
67528;SDS011;54366;51.980;5.856;2023-03-05T05:12:22;4.68;;;1.30;;
67528;SDS011;54366;51.980;5.856;2023-03-05T05:14:56;5.97;;;1.33;;
67528;SDS011;54366;51.980;5.856;2023-03-05T05:17:29;5.47;;;1.23;;
67528;SDS011;54366;51.980;5.856;2023-03-05T05:20:04;5.63;;;1.20;;
67528;SDS011;54366;51.980;5.856;2023-03-05T05:22:31;4.15;;;1.10;;
67528;SDS011;54366;51.980;5.856;2023-03-05T05:25:05;7.35;;;1.35;;
67528;SDS011;54366;51.980;5.856;2023-03-05T05:27:39;3.38;;;1.30;;
67528;SDS011;54366;51.980;5.856;2023-03-05T05:30:12;1.98;;;1.02;;
67528;SDS011;54366;51.980;5.856;2023-03-05T05:32:45;4.93;;;1.33;;
67528;SDS011;54366;51.980;5.856;2023-03-05T05:35:18;4.47;;;1.17;;
67528;SDS011;54366;51.980;5.856;2023-03-05T05:37:51;3.25;;;1.50;;
67528;SDS011;54366;51.980;5.856;2023-03-05T05:40:24;5.18;;;1.20;;
67528;SDS011;54366;51.980;5.856;2023-03-05T05:42:57;4.95;;;1.30;;
67528;SDS011;54366;51.980;5.856;2023-03-05T05:45:30;3.33;;;1.20;;
67528;SDS011;54366;51.980;5.856;2023-03-05T05:48:03;3.42;;;1.25;;
67528;SDS011;54366;51.980;5.856;2023-03-05T05:50:36;4.22;;;1.17;;
67528;SDS011;54366;51.980;5.856;2023-03-05T05:53:10;5.43;;;1.77;;
67528;SDS011;54366;51.980;5.856;2023-03-05T05:55:38;2.70;;;1.08;;
67528;SDS011;54366;51.980;5.856;2023-03-05T05:58:12;5.45;;;1.30;;
67528;SDS011;54366;51.980;5.856;2023-03-05T06:00:45;2.42;;;1.35;;
67528;SDS011;54366;51.980;5.856;2023-03-05T06:03:18;5.45;;;1.88;;
67528;SDS011;54366;51.980;5.856;2023-03-05T06:05:51;5.38;;;2.05;;
67528;SDS011;54366;51.980;5.856;2023-03-05T06:08:24;4.88;;;2.10;;
67528;SDS011;54366;51.980;5.856;2023-03-05T06:10:57;5.00;;;2.13;;
67528;SDS011;54366;51.980;5.856;2023-03-05T06:13:30;4.13;;;1.95;;
67528;SDS011;54366;51.980;5.856;2023-03-05T06:16:04;5.57;;;1.70;;
67528;SDS011;54366;51.980;5.856;2023-03-05T06:18:33;3.05;;;1.40;;
67528;SDS011;54366;51.980;5.856;2023-03-05T06:21:07;4.75;;;1.40;;
67528;SDS011;54366;51.980;5.856;2023-03-05T06:23:43;3.28;;;1.08;;
67528;SDS011;54366;51.980;5.856;2023-03-05T06:26:18;3.55;;;1.80;;
67528;SDS011;54366;51.980;5.856;2023-03-05T06:28:52;2.05;;;1.52;;
67528;SDS011;54366;51.980;5.856;2023-03-05T06:31:26;3.67;;;1.65;;
67528;SDS011;54366;51.980;5.856;2023-03-05T06:33:59;5.05;;;1.60;;
67528;SDS011;54366;51.980;5.856;2023-03-05T06:36:32;4.18;;;1.30;;
67528;SDS011;54366;51.980;5.856;2023-03-05T06:39:05;3.97;;;1.30;;
67528;SDS011;54366;51.980;5.856;2023-03-05T06:41:38;4.13;;;1.20;;
67528;SDS011;54366;51.980;5.856;2023-03-05T06:44:11;4.95;;;2.60;;
67528;SDS011;54366;51.980;5.856;2023-03-05T06:46:44;5.97;;;3.20;;
67528;SDS011;54366;51.980;5.856;2023-03-05T06:49:17;5.05;;;2.72;;
67528;SDS011;54366;51.980;5.856;2023-03-05T06:51:50;7.22;;;3.30;;
67528;SDS011;54366;51.980;5.856;2023-03-05T06:54:23;5.28;;;3.20;;
67528;SDS011;54366;51.980;5.856;2023-03-05T06:57:10;6.78;;;4.35;;
67528;SDS011;54366;51.980;5.856;2023-03-05T06:59:42;6.30;;;3.58;;
67528;SDS011;54366;51.980;5.856;2023-03-05T07:02:15;4.65;;;2.47;;
67528;SDS011;54366;51.980;5.856;2023-03-05T07:04:43;5.75;;;2.50;;
67528;SDS011;54366;51.980;5.856;2023-03-05T07:07:16;3.88;;;2.17;;
67528;SDS011;54366;51.980;5.856;2023-03-05T07:09:49;5.43;;;2.20;;
67528;SDS011;54366;51.980;5.856;2023-03-05T07:12:24;5.50;;;2.30;;
67528;SDS011;54366;51.980;5.856;2023-03-05T07:14:57;3.65;;;2.30;;
67528;SDS011;54366;51.980;5.856;2023-03-05T07:17:30;4.20;;;1.98;;
67528;SDS011;54366;51.980;5.856;2023-03-05T07:20:03;4.90;;;1.85;;
67528;SDS011;54366;51.980;5.856;2023-03-05T07:22:37;4.60;;;1.63;;
67528;SDS011;54366;51.980;5.856;2023-03-05T07:25:10;3.15;;;1.40;;
67528;SDS011;54366;51.980;5.856;2023-03-05T07:27:43;2.42;;;1.40;;
67528;SDS011;54366;51.980;5.856;2023-03-05T07:30:16;4.30;;;1.40;;
67528;SDS011;54366;51.980;5.856;2023-03-05T07:32:49;3.00;;;1.50;;
67528;SDS011;54366;51.980;5.856;2023-03-05T07:35:16;3.33;;;1.40;;
67528;SDS011;54366;51.980;5.856;2023-03-05T07:37:48;3.38;;;1.52;;
67528;SDS011;54366;51.980;5.856;2023-03-05T07:40:21;3.28;;;1.40;;
67528;SDS011;54366;51.980;5.856;2023-03-05T07:42:54;3.40;;;1.17;;
67528;SDS011;54366;51.980;5.856;2023-03-05T07:45:32;3.33;;;1.13;;
67528;SDS011;54366;51.980;5.856;2023-03-05T07:48:05;2.05;;;1.10;;
67528;SDS011;54366;51.980;5.856;2023-03-05T07:50:39;3.85;;;1.20;;
67528;SDS011;54366;51.980;5.856;2023-03-05T07:53:06;3.30;;;1.42;;
67528;SDS011;54366;51.980;5.856;2023-03-05T07:55:43;5.65;;;1.65;;
67528;SDS011;54366;51.980;5.856;2023-03-05T07:58:16;3.40;;;1.40;;
67528;SDS011;54366;51.980;5.856;2023-03-05T08:00:49;2.58;;;1.20;;
67528;SDS011;54366;51.980;5.856;2023-03-05T08:03:22;2.65;;;1.10;;
67528;SDS011;54366;51.980;5.856;2023-03-05T08:05:55;3.90;;;1.70;;
67528;SDS011;54366;51.980;5.856;2023-03-05T08:08:22;2.60;;;1.77;;
67528;SDS011;54366;51.980;5.856;2023-03-05T08:10:54;4.18;;;1.92;;
67528;SDS011;54366;51.980;5.856;2023-03-05T08:13:27;3.20;;;1.80;;
67528;SDS011;54366;51.980;5.856;2023-03-05T08:15:53;2.65;;;1.30;;
67528;SDS011;54366;51.980;5.856;2023-03-05T08:18:26;3.13;;;1.77;;
67528;SDS011;54366;51.980;5.856;2023-03-05T08:20:59;6.43;;;3.35;;
67528;SDS011;54366;51.980;5.856;2023-03-05T08:23:26;5.07;;;2.70;;
67528;SDS011;54366;51.980;5.856;2023-03-05T08:25:59;4.95;;;2.30;;
67528;SDS011;54366;51.980;5.856;2023-03-05T08:28:32;4.40;;;1.65;;
67528;SDS011;54366;51.980;5.856;2023-03-05T08:31:12;3.33;;;1.60;;
67528;SDS011;54366;51.980;5.856;2023-03-05T08:33:46;4.68;;;1.75;;
67528;SDS011;54366;51.980;5.856;2023-03-05T08:36:21;2.80;;;1.73;;
67528;SDS011;54366;51.980;5.856;2023-03-05T08:38:48;3.65;;;1.77;;
67528;SDS011;54366;51.980;5.856;2023-03-05T08:41:21;4.82;;;1.52;;
67528;SDS011;54366;51.980;5.856;2023-03-05T08:43:54;4.78;;;1.50;;
67528;SDS011;54366;51.980;5.856;2023-03-05T08:46:27;3.20;;;1.30;;
67528;SDS011;54366;51.980;5.856;2023-03-05T08:49:00;4.95;;;1.23;;
67528;SDS011;54366;51.980;5.856;2023-03-05T08:51:33;3.03;;;1.08;;
67528;SDS011;54366;51.980;5.856;2023-03-05T08:54:01;2.63;;;1.08;;
67528;SDS011;54366;51.980;5.856;2023-03-05T08:56:37;2.60;;;0.90;;
67528;SDS011;54366;51.980;5.856;2023-03-05T08:59:17;2.97;;;0.88;;
67528;SDS011;54366;51.980;5.856;2023-03-05T09:01:50;2.78;;;1.23;;
67528;SDS011;54366;51.980;5.856;2023-03-05T09:04:23;2.00;;;0.90;;
67528;SDS011;54366;51.980;5.856;2023-03-05T09:06:49;1.90;;;0.80;;
67528;SDS011;54366;51.980;5.856;2023-03-05T09:09:22;1.90;;;0.70;;
67528;SDS011;54366;51.980;5.856;2023-03-05T09:11:56;4.18;;;0.80;;
67528;SDS011;54366;51.980;5.856;2023-03-05T09:14:30;3.30;;;1.20;;
67528;SDS011;54366;51.980;5.856;2023-03-05T09:17:03;1.73;;;1.00;;
67528;SDS011;54366;51.980;5.856;2023-03-05T09:19:36;2.30;;;0.88;;
67528;SDS011;54366;51.980;5.856;2023-03-05T09:22:09;1.77;;;0.70;;
67528;SDS011;54366;51.980;5.856;2023-03-05T09:24:42;1.98;;;0.80;;
67528;SDS011;54366;51.980;5.856;2023-03-05T09:27:09;2.53;;;1.00;;
67528;SDS011;54366;51.980;5.856;2023-03-05T09:29:42;5.63;;;1.48;;
67528;SDS011;54366;51.980;5.856;2023-03-05T09:32:15;5.28;;;2.45;;
67528;SDS011;54366;51.980;5.856;2023-03-05T09:34:41;4.15;;;1.90;;
67528;SDS011;54366;51.980;5.856;2023-03-05T09:37:14;2.45;;;1.10;;
67528;SDS011;54366;51.980;5.856;2023-03-05T09:39:47;2.70;;;1.20;;
67528;SDS011;54366;51.980;5.856;2023-03-05T09:45:35;3.08;;;1.42;;
67528;SDS011;54366;51.980;5.856;2023-03-05T09:48:32;1.80;;;0.93;;
67528;SDS011;54366;51.980;5.856;2023-03-05T09:51:22;4.18;;;1.70;;
67528;SDS011;54366;51.980;5.856;2023-03-05T09:54:02;2.67;;;1.02;;
67528;SDS011;54366;51.980;5.856;2023-03-05T09:56:57;3.35;;;1.50;;
67528;SDS011;54366;51.980;5.856;2023-03-05T09:59:41;1.33;;;0.93;;
67528;SDS011;54366;51.980;5.856;2023-03-05T10:02:25;3.08;;;1.40;;
67528;SDS011;54366;51.980;5.856;2023-03-05T10:05:11;2.25;;;1.00;;
67528;SDS011;54366;51.980;5.856;2023-03-05T10:07:58;2.65;;;0.80;;
67528;SDS011;54366;51.980;5.856;2023-03-05T10:10:37;1.70;;;0.80;;
67528;SDS011;54366;51.980;5.856;2023-03-05T10:13:27;3.95;;;1.92;;
67528;SDS011;54366;51.980;5.856;2023-03-05T10:16:21;3.05;;;1.15;;
67528;SDS011;54366;51.980;5.856;2023-03-05T10:19:50;2.22;;;1.00;;
67528;SDS011;54366;51.980;5.856;2023-03-05T10:23:09;3.05;;;1.05;;
67528;SDS011;54366;51.980;5.856;2023-03-05T10:26:23;1.40;;;0.80;;
67528;SDS011;54366;51.980;5.856;2023-03-05T10:29:37;2.28;;;1.42;;
67528;SDS011;54366;51.980;5.856;2023-03-05T10:32:42;2.42;;;1.30;;
67528;SDS011;54366;51.980;5.856;2023-03-05T10:35:31;2.53;;;1.25;;
67528;SDS011;54366;51.980;5.856;2023-03-05T10:44:57;2.15;;;0.77;;
67528;SDS011;54366;51.980;5.856;2023-03-05T10:47:31;1.98;;;1.00;;
67528;SDS011;54366;51.980;5.856;2023-03-05T10:50:59;2.38;;;0.82;;
67528;SDS011;54366;51.980;5.856;2023-03-05T10:53:19;3.55;;;1.30;;
67528;SDS011;54366;51.980;5.856;2023-03-05T10:56:18;3.83;;;1.02;;
67528;SDS011;54366;51.980;5.856;2023-03-05T10:59:00;1.90;;;0.82;;
67528;SDS011;54366;51.980;5.856;2023-03-05T11:01:33;2.63;;;1.15;;
67528;SDS011;54366;51.980;5.856;2023-03-05T11:04:03;1.65;;;0.80;;
67528;SDS011;54366;51.980;5.856;2023-03-05T11:06:41;2.42;;;0.82;;
67528;SDS011;54366;51.980;5.856;2023-03-05T11:09:25;2.17;;;1.17;;
67528;SDS011;54366;51.980;5.856;2023-03-05T11:12:12;3.17;;;1.05;;
67528;SDS011;54366;51.980;5.856;2023-03-05T11:15:18;3.00;;;1.90;;
67528;SDS011;54366;51.980;5.856;2023-03-05T11:18:14;3.78;;;1.95;;
67528;SDS011;54366;51.980;5.856;2023-03-05T11:20:49;3.80;;;1.70;;
67528;SDS011;54366;51.980;5.856;2023-03-05T11:23:20;3.08;;;1.45;;
67528;SDS011;54366;51.980;5.856;2023-03-05T11:26:01;2.67;;;0.88;;
67528;SDS011;54366;51.980;5.856;2023-03-05T11:28:57;1.85;;;0.80;;
67528;SDS011;54366;51.980;5.856;2023-03-05T11:31:32;1.42;;;0.60;;
67528;SDS011;54366;51.980;5.856;2023-03-05T11:34:09;1.60;;;0.70;;
67528;SDS011;54366;51.980;5.856;2023-03-05T11:37:09;1.80;;;0.50;;
67528;SDS011;54366;51.980;5.856;2023-03-05T11:43:03;2.97;;;0.50;;
67528;SDS011;54366;51.980;5.856;2023-03-05T11:45:30;1.25;;;0.43;;
67528;SDS011;54366;51.980;5.856;2023-03-05T11:48:11;2.78;;;0.90;;
67528;SDS011;54366;51.980;5.856;2023-03-05T11:50:52;4.10;;;0.90;;
67528;SDS011;54366;51.980;5.856;2023-03-05T11:53:30;1.63;;;0.70;;
67528;SDS011;54366;51.980;5.856;2023-03-05T11:59:20;1.35;;;0.52;;
67528;SDS011;54366;51.980;5.856;2023-03-05T12:01:58;2.30;;;0.60;;
67528;SDS011;54366;51.980;5.856;2023-03-05T12:04:31;1.95;;;0.52;;
67528;SDS011;54366;51.980;5.856;2023-03-05T12:07:05;2.05;;;0.55;;
67528;SDS011;54366;51.980;5.856;2023-03-05T12:09:51;2.75;;;1.00;;
67528;SDS011;54366;51.980;5.856;2023-03-05T12:12:40;3.75;;;1.77;;
67528;SDS011;54366;51.980;5.856;2023-03-05T12:15:43;1.40;;;1.00;;
67528;SDS011;54366;51.980;5.856;2023-03-05T12:19:09;1.42;;;0.68;;
67528;SDS011;54366;51.980;5.856;2023-03-05T12:22:15;1.73;;;0.80;;
67528;SDS011;54366;51.980;5.856;2023-03-05T12:27:54;1.70;;;0.70;;
67528;SDS011;54366;51.980;5.856;2023-03-05T12:39:40;1.20;;;0.75;;
67528;SDS011;54366;51.980;5.856;2023-03-05T12:45:42;1.17;;;0.60;;
67528;SDS011;54366;51.980;5.856;2023-03-05T12:48:33;2.40;;;0.52;;
67528;SDS011;54366;51.980;5.856;2023-03-05T12:51:12;1.88;;;0.85;;
67528;SDS011;54366;51.980;5.856;2023-03-05T12:54:17;2.05;;;0.73;;
67528;SDS011;54366;51.980;5.856;2023-03-05T12:57:16;1.60;;;0.70;;
67528;SDS011;54366;51.980;5.856;2023-03-05T13:01:03;2.95;;;1.13;;
67528;SDS011;54366;51.980;5.856;2023-03-05T13:03:14;3.83;;;1.90;;
67528;SDS011;54366;51.980;5.856;2023-03-05T13:05:51;2.60;;;1.63;;
67528;SDS011;54366;51.980;5.856;2023-03-05T13:08:29;2.33;;;1.08;;
67528;SDS011;54366;51.980;5.856;2023-03-05T13:11:17;2.63;;;0.90;;
67528;SDS011;54366;51.980;5.856;2023-03-05T13:13:52;1.65;;;0.50;;
67528;SDS011;54366;51.980;5.856;2023-03-05T13:16:27;2.65;;;0.45;;
67528;SDS011;54366;51.980;5.856;2023-03-05T13:19:02;1.10;;;0.40;;
67528;SDS011;54366;51.980;5.856;2023-03-05T13:21:30;1.25;;;0.30;;
67528;SDS011;54366;51.980;5.856;2023-03-05T13:26:45;1.83;;;1.70;;
67528;SDS011;54366;51.980;5.856;2023-03-05T13:29:15;2.00;;;0.73;;
67528;SDS011;54366;51.980;5.856;2023-03-05T13:32:00;1.05;;;0.60;;
67528;SDS011;54366;51.980;5.856;2023-03-05T13:34:35;2.05;;;0.70;;
67528;SDS011;54366;51.980;5.856;2023-03-05T13:37:18;1.98;;;0.70;;
67528;SDS011;54366;51.980;5.856;2023-03-05T13:40:04;1.38;;;0.50;;
67528;SDS011;54366;51.980;5.856;2023-03-05T13:43:11;1.95;;;0.40;;
67528;SDS011;54366;51.980;5.856;2023-03-05T13:45:53;2.10;;;0.60;;
67528;SDS011;54366;51.980;5.856;2023-03-05T13:48:29;1.35;;;0.57;;
67528;SDS011;54366;51.980;5.856;2023-03-05T13:51:02;1.55;;;0.40;;
67528;SDS011;54366;51.980;5.856;2023-03-05T13:53:40;2.63;;;0.55;;
67528;SDS011;54366;51.980;5.856;2023-03-05T13:56:20;0.93;;;0.40;;
67528;SDS011;54366;51.980;5.856;2023-03-05T13:58:59;1.25;;;0.60;;
67528;SDS011;54366;51.980;5.856;2023-03-05T14:01:42;3.13;;;1.05;;
67528;SDS011;54366;51.980;5.856;2023-03-05T14:04:18;4.80;;;2.30;;
67528;SDS011;54366;51.980;5.856;2023-03-05T14:07:06;3.42;;;1.50;;
67528;SDS011;54366;51.980;5.856;2023-03-05T14:09:55;1.95;;;1.13;;
67528;SDS011;54366;51.980;5.856;2023-03-05T14:12:35;1.90;;;0.88;;
67528;SDS011;54366;51.980;5.856;2023-03-05T14:15:24;1.40;;;0.90;;
67528;SDS011;54366;51.980;5.856;2023-03-05T14:21:05;1.75;;;1.10;;
67528;SDS011;54366;51.980;5.856;2023-03-05T14:23:46;2.50;;;1.00;;
67528;SDS011;54366;51.980;5.856;2023-03-05T14:26:34;3.05;;;0.95;;
67528;SDS011;54366;51.980;5.856;2023-03-05T14:32:04;2.03;;;1.30;;
67528;SDS011;54366;51.980;5.856;2023-03-05T14:34:39;3.00;;;1.25;;
67528;SDS011;54366;51.980;5.856;2023-03-05T14:37:20;2.15;;;1.15;;
67528;SDS011;54366;51.980;5.856;2023-03-05T14:40:06;1.02;;;0.47;;
67528;SDS011;54366;51.980;5.856;2023-03-05T14:43:08;2.13;;;1.20;;
67528;SDS011;54366;51.980;5.856;2023-03-05T14:45:42;2.15;;;1.20;;
67528;SDS011;54366;51.980;5.856;2023-03-05T14:48:16;1.58;;;0.70;;
67528;SDS011;54366;51.980;5.856;2023-03-05T14:50:52;2.03;;;0.80;;
67528;SDS011;54366;51.980;5.856;2023-03-05T14:53:28;2.20;;;0.90;;
67528;SDS011;54366;51.980;5.856;2023-03-05T14:56:21;2.05;;;1.20;;
67528;SDS011;54366;51.980;5.856;2023-03-05T14:59:03;1.92;;;1.00;;
67528;SDS011;54366;51.980;5.856;2023-03-05T15:01:35;1.52;;;0.80;;
67528;SDS011;54366;51.980;5.856;2023-03-05T15:04:08;2.30;;;0.70;;
67528;SDS011;54366;51.980;5.856;2023-03-05T15:06:41;1.63;;;0.70;;
67528;SDS011;54366;51.980;5.856;2023-03-05T15:09:18;1.23;;;0.50;;
67528;SDS011;54366;51.980;5.856;2023-03-05T15:11:51;2.65;;;0.90;;
67528;SDS011;54366;51.980;5.856;2023-03-05T15:14:24;2.92;;;1.17;;
67528;SDS011;54366;51.980;5.856;2023-03-05T15:16:51;2.40;;;2.10;;
67528;SDS011;54366;51.980;5.856;2023-03-05T15:19:23;1.98;;;1.77;;
67528;SDS011;54366;51.980;5.856;2023-03-05T15:21:56;7.95;;;5.47;;
67528;SDS011;54366;51.980;5.856;2023-03-05T15:24:23;2.97;;;2.30;;
67528;SDS011;54366;51.980;5.856;2023-03-05T15:26:55;1.65;;;1.40;;
67528;SDS011;54366;51.980;5.856;2023-03-05T15:29:28;2.38;;;1.58;;
67528;SDS011;54366;51.980;5.856;2023-03-05T15:32:02;2.97;;;1.45;;
67528;SDS011;54366;51.980;5.856;2023-03-05T15:34:36;1.98;;;1.00;;
67528;SDS011;54366;51.980;5.856;2023-03-05T15:37:09;1.88;;;1.00;;
67528;SDS011;54366;51.980;5.856;2023-03-05T15:39:43;1.75;;;1.00;;
67528;SDS011;54366;51.980;5.856;2023-03-05T15:42:10;2.25;;;0.95;;
67528;SDS011;54366;51.980;5.856;2023-03-05T15:44:42;1.40;;;0.88;;
67528;SDS011;54366;51.980;5.856;2023-03-05T15:47:15;2.40;;;0.90;;
67528;SDS011;54366;51.980;5.856;2023-03-05T15:49:48;0.93;;;0.52;;
67528;SDS011;54366;51.980;5.856;2023-03-05T15:52:21;2.40;;;0.73;;
67528;SDS011;54366;51.980;5.856;2023-03-05T15:54:54;0.73;;;0.60;;
67528;SDS011;54366;51.980;5.856;2023-03-05T15:57:21;1.00;;;0.80;;
67528;SDS011;54366;51.980;5.856;2023-03-05T15:59:53;2.17;;;0.95;;
67528;SDS011;54366;51.980;5.856;2023-03-05T16:02:35;1.83;;;0.90;;
67528;SDS011;54366;51.980;5.856;2023-03-05T16:05:02;3.00;;;1.10;;
67528;SDS011;54366;51.980;5.856;2023-03-05T16:07:36;2.00;;;0.85;;
67528;SDS011;54366;51.980;5.856;2023-03-05T16:10:12;2.75;;;1.25;;
67528;SDS011;54366;51.980;5.856;2023-03-05T16:12:49;1.23;;;1.13;;
67528;SDS011;54366;51.980;5.856;2023-03-05T16:15:25;1.30;;;1.02;;
67528;SDS011;54366;51.980;5.856;2023-03-05T16:17:59;1.27;;;0.95;;
67528;SDS011;54366;51.980;5.856;2023-03-05T16:20:36;2.05;;;1.00;;
67528;SDS011;54366;51.980;5.856;2023-03-05T16:23:03;2.85;;;1.50;;